Time;durP1;ratioP1;P1;durP2;ratioP2;P2;SDS_P1;SDS_P2;PMS_P1;PMS_P2;Temp;Humidity;BMP_temperature;BMP_pressure;BME280_temperature;BME280_humidity;BME280_pressure;Samples;Min_cycle;Max_cycle;Signal;HPM_P1;HPM_P2
2023/11/05 00:02:17;;;;;;;5.07;3.55;;;10.80;99.90;;;;;;5031697;28;20380;-55
2023/11/05 00:04:43;;;;;;;5.68;3.85;;;10.30;99.90;;;;;;4996457;28;20052;-56
2023/11/05 00:07:09;;;;;;;5.03;3.10;;;10.30;99.90;;;;;;5028651;28;20096;-54
2023/11/05 00:09:34;;;;;;;5.95;3.35;;;10.40;99.90;;;;;;5031725;28;20047;-56
2023/11/05 00:12:00;;;;;;;5.05;3.50;;;10.60;99.90;;;;;;5012836;28;20042;-55
2023/11/05 00:14:26;;;;;;;4.47;3.22;;;10.70;99.90;;;;;;4980612;28;20037;-55
2023/11/05 00:16:52;;;;;;;5.45;3.08;;;10.70;99.90;;;;;;5031592;28;20038;-55
2023/11/05 00:19:17;;;;;;;4.00;2.30;;;10.70;99.90;;;;;;4996616;28;20493;-56
2023/11/05 00:21:44;;;;;;;3.28;2.35;;;10.80;99.90;;;;;;5031650;28;20040;-55
2023/11/05 00:24:10;;;;;;;6.05;2.95;;;11.00;99.90;;;;;;5031899;28;20388;-55
2023/11/05 00:26:36;;;;;;;3.38;2.08;;;11.10;99.90;;;;;;4980348;28;20044;-55
2023/11/05 00:29:01;;;;;;;4.00;2.38;;;11.00;99.90;;;;;;5031452;28;20045;-55
2023/11/05 00:31:27;;;;;;;7.18;2.60;;;11.00;99.90;;;;;;5031563;28;20033;-56
2023/11/05 00:33:53;;;;;;;5.00;2.35;;;11.00;99.90;;;;;;5031589;28;20091;-55
2023/11/05 00:36:19;;;;;;;2.85;1.95;;;11.00;99.90;;;;;;5031628;28;20029;-55
2023/11/05 00:38:44;;;;;;;2.78;1.67;;;11.00;99.90;;;;;;5031396;28;20163;-55
2023/11/05 00:41:10;;;;;;;3.17;1.88;;;11.00;99.90;;;;;;5031208;28;20556;-55
2023/11/05 00:43:36;;;;;;;3.80;1.83;;;11.00;99.90;;;;;;5031637;28;20032;-56
2023/11/05 00:46:02;;;;;;;5.03;2.40;;;11.10;99.90;;;;;;4996324;28;20041;-56
2023/11/05 00:48:28;;;;;;;5.05;2.50;;;;;;;;;;5031106;28;20053;-55
2023/11/05 00:50:53;;;;;;;6.05;3.67;;;11.20;99.90;;;;;;5031161;28;20037;-55
2023/11/05 00:53:19;;;;;;;4.35;2.38;;;11.20;99.90;;;;;;5031300;28;20033;-57
2023/11/05 00:55:45;;;;;;;5.10;2.55;;;;;;;;;;5033864;28;20432;-55
2023/11/05 00:58:11;;;;;;;4.20;2.72;;;;;;;;;;5034948;28;20029;-56
2023/11/05 01:00:37;;;;;;;4.97;2.65;;;11.60;99.90;;;;;;5034641;28;20510;-56
2023/11/05 01:03:03;;;;;;;3.42;2.30;;;;;;;;;;4999600;28;20049;-55
2023/11/05 01:05:29;;;;;;;4.40;3.05;;;11.20;99.90;;;;;;5034754;28;20038;-55
2023/11/05 01:07:55;;;;;;;6.45;2.40;;;11.00;99.90;;;;;;5034772;28;20492;-56
2023/11/05 01:10:20;;;;;;;2.72;2.00;;;10.80;99.90;;;;;;5034440;28;20042;-56
2023/11/05 01:12:46;;;;;;;4.35;2.50;;;10.80;99.90;;;;;;5034160;28;20577;-56
2023/11/05 01:15:12;;;;;;;3.90;1.92;;;10.80;99.90;;;;;;5034993;28;20033;-55
2023/11/05 01:17:38;;;;;;;4.63;2.00;;;10.80;99.90;;;;;;5034515;28;20493;-55
2023/11/05 01:20:06;;;;;;;5.15;2.30;;;11.00;99.90;;;;;;5034644;28;20465;-55
2023/11/05 01:22:32;;;;;;;3.47;2.08;;;11.10;99.90;;;;;;4984193;28;20041;-55
2023/11/05 01:24:58;;;;;;;4.10;2.40;;;11.00;99.90;;;;;;4999247;28;20443;-55
2023/11/05 01:27:24;;;;;;;3.90;2.13;;;11.10;99.90;;;;;;5034298;28;20037;-55
2023/11/05 01:29:49;;;;;;;4.53;2.75;;;11.20;99.90;;;;;;5034424;28;20507;-55
2023/11/05 01:32:15;;;;;;;2.90;1.90;;;11.20;99.90;;;;;;5034094;28;20040;-55
2023/11/05 01:34:41;;;;;;;3.30;2.10;;;11.00;99.90;;;;;;5034134;28;20037;-55
2023/11/05 01:37:08;;;;;;;4.47;2.50;;;11.10;99.90;;;;;;5034088;28;20473;-55
2023/11/05 01:39:33;;;;;;;4.82;2.45;;;11.20;99.90;;;;;;5034086;28;20037;-55
2023/11/05 01:41:59;;;;;;;4.82;2.50;;;11.20;99.90;;;;;;5034001;28;20040;-55
2023/11/05 01:44:25;;;;;;;4.55;2.47;;;11.30;99.90;;;;;;5033782;28;20034;-55
2023/11/05 01:46:51;;;;;;;3.67;2.65;;;11.20;99.90;;;;;;5033822;28;20400;-54
2023/11/05 01:49:16;;;;;;;6.63;3.20;;;11.10;99.90;;;;;;5033576;28;20564;-54
2023/11/05 01:51:42;;;;;;;7.97;4.13;;;11.20;99.90;;;;;;5034046;28;20091;-55
2023/11/05 01:54:08;;;;;;;5.80;3.03;;;11.20;99.90;;;;;;5033914;28;20545;-55
2023/11/05 01:56:36;;;;;;;4.50;2.92;;;11.20;99.90;;;;;;4998720;28;20041;-54
2023/11/05 01:59:03;;;;;;;5.93;3.00;;;11.20;99.90;;;;;;5033699;28;20029;-55
2023/11/05 02:01:28;;;;;;;3.97;2.33;;;11.30;99.90;;;;;;5033550;28;20064;-54
2023/11/05 02:03:54;;;;;;;6.18;3.00;;;11.50;99.90;;;;;;5225125;22;20103;-55
2023/11/05 02:06:20;;;;;;;4.82;3.03;;;11.60;99.90;;;;;;5043663;28;20064;-55
2023/11/05 02:08:46;;;;;;;5.53;3.28;;;11.80;99.90;;;;;;5033399;28;20120;-54
2023/11/05 02:11:12;;;;;;;4.45;3.10;;;11.70;99.90;;;;;;5014654;28;20085;-55
2023/11/05 02:13:51;;;;;;;7.68;3.47;;;11.70;99.90;;;;;;5033364;28;20514;-55
2023/11/05 02:16:18;;;;;;;4.82;2.72;;;11.70;99.90;;;;;;5041168;28;20037;-55
2023/11/05 02:18:44;;;;;;;5.10;2.78;;;11.60;99.90;;;;;;5035776;28;20068;-55
2023/11/05 02:21:12;;;;;;;5.57;3.00;;;;;;;;;;5033228;28;20552;-55
2023/11/05 02:23:38;;;;;;;4.82;2.75;;;11.80;99.90;;;;;;5033534;28;20116;-55
2023/11/05 02:26:04;;;;;;;4.50;2.40;;;11.80;99.90;;;;;;5014282;28;20124;-55
2023/11/05 02:28:32;;;;;;;6.13;2.85;;;12.00;99.90;;;;;;4998017;28;20506;-55
2023/11/05 02:30:58;;;;;;;4.70;2.33;;;11.90;99.90;;;;;;5033184;28;20459;-55
2023/11/05 02:33:24;;;;;;;6.05;2.33;;;11.90;99.90;;;;;;4998244;28;20041;-55
2023/11/05 02:35:49;;;;;;;3.22;2.25;;;11.90;99.90;;;;;;5033075;28;20060;-55
2023/11/05 02:38:15;;;;;;;5.50;3.20;;;12.00;99.90;;;;;;5032854;28;20082;-55
2023/11/05 02:40:41;;;;;;;4.90;2.00;;;12.10;99.90;;;;;;5033052;28;20030;-55
2023/11/05 02:43:07;;;;;;;3.95;2.20;;;12.10;99.90;;;;;;5032683;28;20033;-56
2023/11/05 02:45:32;;;;;;;4.00;2.20;;;12.10;99.90;;;;;;5032761;28;20029;-55
2023/11/05 02:47:58;;;;;;;6.53;2.10;;;12.20;99.90;;;;;;5032553;28;20029;-55
2023/11/05 02:50:24;;;;;;;4.47;1.90;;;12.30;99.90;;;;;;5032529;28;20082;-55
2023/11/05 02:52:50;;;;;;;4.00;1.75;;;12.30;99.90;;;;;;5032627;28;20443;-56
2023/11/05 02:55:16;;;;;;;6.63;1.70;;;12.40;99.90;;;;;;5032485;28;20033;-56
2023/11/05 02:57:42;;;;;;;3.08;1.60;;;12.30;99.90;;;;;;5032949;28;20021;-55
2023/11/05 03:00:10;;;;;;;3.60;1.77;;;12.30;99.90;;;;;;5032404;28;20056;-55
2023/11/05 03:02:39;;;;;;;2.72;1.55;;;12.30;99.90;;;;;;5032728;28;20037;-55
2023/11/05 03:05:05;;;;;;;2.78;1.45;;;12.30;99.90;;;;;;5032291;28;20102;-55
2023/11/05 03:07:31;;;;;;;2.25;1.50;;;12.30;99.90;;;;;;5032811;28;20427;-55
2023/11/05 03:09:57;;;;;;;3.20;1.95;;;12.30;99.90;;;;;;5032410;28;20033;-56
2023/11/05 03:12:23;;;;;;;2.58;1.60;;;12.40;99.90;;;;;;4997187;28;20245;-55
2023/11/05 03:14:50;;;;;;;2.03;1.50;;;12.40;99.90;;;;;;5032614;28;20026;-55
2023/11/05 03:17:16;;;;;;;3.92;1.85;;;12.50;99.90;;;;;;4997593;28;20682;-55
2023/11/05 03:19:42;;;;;;;5.35;1.85;;;12.50;99.90;;;;;;4997022;28;20095;-55
2023/11/05 03:22:28;;;;;;;5.55;1.80;;;12.50;99.90;;;;;;4965045;28;20037;-55
2023/11/05 03:24:54;;;;;;;5.25;1.85;;;12.50;99.90;;;;;;4990086;28;20038;-55
2023/11/05 03:27:19;;;;;;;3.42;1.75;;;12.40;99.90;;;;;;4990265;28;20050;-55
2023/11/05 03:29:45;;;;;;;2.25;1.20;;;12.40;99.90;;;;;;4990225;28;20092;-55
2023/11/05 03:32:11;;;;;;;4.15;1.90;;;12.50;99.90;;;;;;4990313;28;20027;-56
2023/11/05 03:34:37;;;;;;;3.88;1.70;;;;;;;;;;4990303;28;20039;-56
2023/11/05 03:37:03;;;;;;;2.53;1.65;;;12.80;99.90;;;;;;4990242;28;20031;-55
2023/11/05 03:39:29;;;;;;;2.72;1.27;;;;;;;;;;4990243;28;20042;-55
2023/11/05 03:41:55;;;;;;;3.15;1.70;;;;;;;;;;4990263;28;20117;-55
2023/11/05 03:44:21;;;;;;;3.53;1.50;;;;;;;;;;4990059;28;20045;-55
2023/11/05 03:46:48;;;;;;;4.90;1.95;;;;;;;;;;4989615;28;20039;-55
2023/11/05 03:49:14;;;;;;;3.40;1.50;;;;;;;;;;5000517;28;20222;-56
2023/11/05 03:51:40;;;;;;;2.50;1.60;;;;;;;;;;5009671;28;20511;-55
2023/11/05 03:54:06;;;;;;;4.95;1.70;;;;;;;;;;5009648;28;20574;-55
2023/11/05 03:56:33;;;;;;;2.83;1.42;;;;;;;;;;5012109;28;20056;-55
2023/11/05 03:58:59;;;;;;;3.75;1.58;;;;;;;;;;5051948;28;20036;-55
2023/11/05 04:01:25;;;;;;;5.45;1.90;;;12.60;99.90;;;;;;5051785;28;20025;-56
2023/11/05 04:03:50;;;;;;;4.47;1.50;;;12.40;99.90;;;;;;5051429;28;20100;-55
2023/11/05 04:06:17;;;;;;;3.45;1.23;;;12.40;99.90;;;;;;5051528;28;20044;-56
2023/11/05 04:08:45;;;;;;;3.95;1.92;;;12.40;99.90;;;;;;5051758;28;20041;-55
2023/11/05 04:11:11;;;;;;;3.45;1.65;;;12.40;99.90;;;;;;5051937;28;20575;-55
2023/11/05 04:13:37;;;;;;;3.53;0.93;;;12.50;99.90;;;;;;5051617;28;20031;-56
2023/11/05 04:16:03;;;;;;;5.45;1.27;;;12.50;99.90;;;;;;5051674;28;20055;-55
2023/11/05 04:18:28;;;;;;;1.55;1.02;;;12.60;99.90;;;;;;4983276;28;20116;-55
2023/11/05 04:20:54;;;;;;;2.53;1.27;;;12.50;99.90;;;;;;5032762;28;20119;-56
2023/11/05 04:23:20;;;;;;;4.35;1.02;;;12.60;99.90;;;;;;5051343;28;20108;-56
2023/11/05 04:25:46;;;;;;;1.88;0.65;;;12.60;99.90;;;;;;5016137;28;20068;-55
2023/11/05 04:28:12;;;;;;;3.20;1.20;;;12.60;99.90;;;;;;5051428;28;20029;-55
2023/11/05 04:30:38;;;;;;;1.77;0.85;;;12.60;99.90;;;;;;5053652;28;20033;-56
2023/11/05 04:33:04;;;;;;;2.33;1.08;;;12.70;99.90;;;;;;5036529;28;20068;-55
2023/11/05 04:35:30;;;;;;;1.73;0.80;;;12.70;99.90;;;;;;5055078;28;20044;-55
2023/11/05 04:37:56;;;;;;;1.88;1.00;;;12.70;99.90;;;;;;5036617;28;20659;-55
2023/11/05 04:40:22;;;;;;;1.27;0.82;;;12.70;99.90;;;;;;5037015;28;20095;-56
2023/11/05 04:42:49;;;;;;;3.17;1.02;;;12.70;99.90;;;;;;5055055;28;20032;-55
2023/11/05 04:45:15;;;;;;;1.63;1.05;;;12.60;99.90;;;;;;5055286;28;20037;-55
2023/11/05 04:47:41;;;;;;;1.38;0.90;;;12.70;99.90;;;;;;5055122;28;20040;-55
2023/11/05 04:50:07;;;;;;;2.42;1.15;;;12.70;99.90;;;;;;5054777;28;20387;-55
2023/11/05 04:52:33;;;;;;;1.83;1.10;;;12.70;99.90;;;;;;5055334;28;20047;-56
2023/11/05 04:55:00;;;;;;;1.85;0.80;;;12.70;99.90;;;;;;5054736;28;20074;-55
2023/11/05 04:57:26;;;;;;;1.67;0.80;;;12.60;99.90;;;;;;5054693;28;20401;-55
2023/11/05 04:59:52;;;;;;;2.97;0.90;;;12.50;99.90;;;;;;5054779;28;20032;-55
2023/11/05 05:02:18;;;;;;;2.00;0.95;;;12.50;99.90;;;;;;5054711;28;20062;-55
2023/11/05 05:04:43;;;;;;;3.95;1.58;;;12.50;99.90;;;;;;5054093;28;20099;-55
2023/11/05 05:07:09;;;;;;;4.15;2.45;;;12.50;99.90;;;;;;5054649;28;20021;-55
2023/11/05 05:09:37;;;;;;;7.50;4.63;;;;;;;;;;5054620;28;20029;-55
2023/11/05 05:12:03;;;;;;;2.03;1.27;;;;;;;;;;5054710;28;20029;-55
2023/11/05 05:14:29;;;;;;;4.35;1.50;;;;;;;;;;5019313;28;20055;-55
2023/11/05 05:16:55;;;;;;;2.67;0.80;;;12.80;99.90;;;;;;5054324;28;20025;-55
2023/11/05 05:19:21;;;;;;;2.50;1.30;;;12.80;99.90;;;;;;5054276;28;20033;-55
2023/11/05 05:21:47;;;;;;;2.08;1.10;;;12.80;99.90;;;;;;5054190;28;20032;-55
2023/11/05 05:24:13;;;;;;;3.53;1.60;;;12.90;99.90;;;;;;5002449;28;20043;-55
2023/11/05 05:26:38;;;;;;;2.92;1.13;;;12.90;99.90;;;;;;5018906;28;20037;-55
2023/11/05 05:29:05;;;;;;;2.05;0.90;;;13.00;99.90;;;;;;5054143;28;20032;-55
2023/11/05 05:31:31;;;;;;;2.70;1.00;;;13.00;99.90;;;;;;5018877;28;20033;-56
2023/11/05 05:33:57;;;;;;;3.10;1.10;;;13.10;99.90;;;;;;5054108;28;20480;-55
2023/11/05 05:36:23;;;;;;;1.15;0.73;;;13.10;99.90;;;;;;5054069;28;20075;-55
2023/11/05 05:38:49;;;;;;;2.10;1.23;;;13.20;99.90;;;;;;5053948;28;20059;-55
2023/11/05 05:41:15;;;;;;;4.07;2.10;;;13.20;99.90;;;;;;5052899;28;20460;-55
2023/11/05 05:43:41;;;;;;;4.18;1.17;;;13.20;99.90;;;;;;5018561;28;20044;-56
2023/11/05 05:46:07;;;;;;;4.40;1.10;;;13.20;99.90;;;;;;5035219;28;20048;-55
2023/11/05 05:48:33;;;;;;;4.10;1.83;;;13.10;99.90;;;;;;5053335;28;20155;-55
2023/11/05 05:50:58;;;;;;;2.63;1.27;;;13.10;99.90;;;;;;5053768;28;20103;-55
2023/11/05 05:53:24;;;;;;;4.45;1.25;;;13.10;99.90;;;;;;5053645;28;20036;-55
2023/11/05 05:55:52;;;;;;;2.58;1.30;;;13.20;99.90;;;;;;5053647;28;20043;-55
2023/11/05 05:58:21;;;;;;;4.00;1.15;;;13.20;99.90;;;;;;5053876;28;20060;-55
2023/11/05 06:00:47;;;;;;;2.17;1.20;;;13.20;99.90;;;;;;5053366;28;20033;-55
2023/11/05 06:03:12;;;;;;;3.30;1.38;;;13.10;99.90;;;;;;5053836;28;20025;-56
2023/11/05 06:05:38;;;;;;;4.20;1.30;;;13.10;99.90;;;;;;5052991;28;20088;-56
2023/11/05 06:08:04;;;;;;;4.43;1.30;;;13.10;99.90;;;;;;5053508;28;20029;-55
2023/11/05 06:10:30;;;;;;;0.80;0.68;;;13.10;99.90;;;;;;5053043;28;20075;-56
2023/11/05 06:12:56;;;;;;;1.75;1.08;;;13.20;99.90;;;;;;5053158;28;20028;-55
2023/11/05 06:15:21;;;;;;;2.38;1.08;;;13.20;99.90;;;;;;5001929;28;20048;-55
2023/11/05 06:17:47;;;;;;;1.23;0.80;;;13.30;99.90;;;;;;5001538;28;20036;-55
2023/11/05 06:20:13;;;;;;;2.00;0.90;;;;;;;;;;5053182;28;20072;-55
2023/11/05 06:22:39;;;;;;;362.27;238.48;;;13.50;99.90;;;;;;5053024;28;20021;-55
2023/11/05 06:25:08;;;;;;;214.20;104.28;;;13.70;99.90;;;;;;5053191;28;20387;-55
2023/11/05 06:27:34;;;;;;;150.70;60.63;;;13.70;99.90;;;;;;5053035;28;20036;-55
2023/11/05 06:30:01;;;;;;;91.03;45.65;;;13.60;99.90;;;;;;5053262;28;20037;-55
2023/11/05 06:32:27;;;;;;;13.38;6.43;;;13.70;99.90;;;;;;5052532;28;20037;-55
2023/11/05 06:34:52;;;;;;;11.32;7.72;;;13.70;99.90;;;;;;5017489;28;20044;-55
2023/11/05 06:37:18;;;;;;;11.15;7.68;;;14.40;99.90;;;;;;5001423;28;20033;-55
2023/11/05 06:39:44;;;;;;;8.20;4.50;;;16.40;99.90;;;;;;5053256;28;20029;-56
2023/11/05 06:42:10;;;;;;;9.75;7.50;;;17.70;99.90;;;;;;5052674;28;20035;-56
2023/11/05 06:44:36;;;;;;;11.02;9.02;;;18.80;99.90;;;;;;5052571;28;20539;-55
2023/11/05 06:47:02;;;;;;;51.35;44.63;;;;;;;;;;5052977;28;20028;-56
2023/11/05 06:49:28;;;;;;;40.38;36.47;;;;;;;;;;5052769;28;20064;-55
2023/11/05 06:51:54;;;;;;;61.85;55.78;;;;;;;;;;5052947;28;20040;-56
2023/11/05 06:54:20;;;;;;;23.83;21.25;;;20.20;99.00;;;;;;5052462;28;20080;-55
2023/11/05 06:56:45;;;;;;;22.23;20.02;;;18.70;99.90;;;;;;5052293;28;20509;-56
2023/11/05 06:59:11;;;;;;;26.00;23.42;;;18.50;99.90;;;;;;5052466;28;20104;-55
2023/11/05 07:01:37;;;;;;;7.13;4.95;;;19.30;99.90;;;;;;5017220;28;20033;-56
2023/11/05 07:04:03;;;;;;;3.03;2.10;;;;;;;;;;5016953;28;20051;-55
2023/11/05 07:06:29;;;;;;;3.33;1.20;;;19.90;99.90;;;;;;5000724;28;20472;-53
2023/11/05 07:08:56;;;;;;;2.95;2.00;;;19.60;99.90;;;;;;5051837;28;20120;-54
2023/11/05 07:11:21;;;;;;;2.65;1.90;;;19.50;99.90;;;;;;5052501;28;20033;-54
2023/11/05 07:13:47;;;;;;;1.35;1.25;;;20.60;99.90;;;;;;5016714;28;20395;-53
2023/11/05 07:16:13;;;;;;;3.50;1.60;;;20.50;99.90;;;;;;5052303;28;20468;-53
2023/11/05 07:18:39;;;;;;;2.97;1.70;;;20.40;99.90;;;;;;5052070;28;20029;-54
2023/11/05 07:21:05;;;;;;;1.70;1.60;;;;;;;;;;5051960;28;20032;-54
2023/11/05 07:23:32;;;;;;;12.27;11.27;;;;;;;;;;5052229;28;20044;-54
2023/11/05 07:25:57;;;;;;;4.28;3.88;;;22.80;99.90;;;;;;5052140;28;20511;-54
2023/11/05 07:28:23;;;;;;;5.88;3.10;;;;;;;;;;5051808;28;20057;-55
2023/11/05 07:30:49;;;;;;;3.10;2.90;;;26.30;97.60;;;;;;5051890;28;20029;-55
2023/11/05 07:33:15;;;;;;;7.35;6.05;;;;;;;;;;5016613;28;20033;-55
2023/11/05 07:35:41;;;;;;;13.60;12.30;;;;;;;;;;5052340;28;20039;-55
2023/11/05 07:38:08;;;;;;;3.92;3.63;;;30.10;94.10;;;;;;5051361;28;20025;-55
2023/11/05 07:40:35;;;;;;;10.77;9.82;;;;;;;;;;5000736;28;20475;-55
2023/11/05 07:43:01;;;;;;;6.47;5.97;;;;;;;;;;5051545;28;20033;-56
2023/11/05 07:45:27;;;;;;;10.73;10.13;;;;;;;;;;5051830;28;20120;-55
2023/11/05 07:47:53;;;;;;;3.00;2.80;;;;;;;;;;5000071;28;20068;-55
2023/11/05 07:50:20;;;;;;;2.88;2.40;;;27.50;86.80;;;;;;5000313;28;20087;-55
2023/11/05 07:52:46;;;;;;;9.57;9.15;;;;;;;;;;5000381;28;20120;-56
2023/11/05 07:55:12;;;;;;;59.05;42.17;;;27.20;85.20;;;;;;5000416;28;20040;-55
2023/11/05 07:57:38;;;;;;;17.55;16.25;;;;;;;;;;5051858;28;20033;-55
2023/11/05 08:00:05;;;;;;;9.02;8.52;;;27.60;84.00;;;;;;5051545;28;20025;-55
2023/11/05 08:02:33;;;;;;;6.38;6.07;;;27.70;84.80;;;;;;5051606;28;20078;-55
2023/11/05 08:04:59;;;;;;;4.90;4.53;;;27.60;85.00;;;;;;5052738;28;20608;-55
2023/11/05 08:07:26;;;;;;;46.08;35.55;;;;;;;;;;5055726;28;20033;-54
2023/11/05 08:09:53;;;;;;;10.07;9.07;;;28.10;84.00;;;;;;5055632;28;20080;-55
2023/11/05 08:12:20;;;;;;;8.85;8.43;;;28.10;84.80;;;;;;5004922;28;20037;-55
2023/11/05 08:14:46;;;;;;;6.35;5.82;;;;;;;;;;5055752;28;20060;-55
2023/11/05 08:17:12;;;;;;;5.20;4.90;;;29.90;99.90;;;;;;5055024;28;20029;-55
2023/11/05 08:19:38;;;;;;;7.72;7.03;;;30.10;84.50;;;;;;5055487;28;20021;-55
2023/11/05 08:22:05;;;;;;;3.95;3.72;;;;;;;;;;5020065;28;20589;-55
2023/11/05 08:24:32;;;;;;;15.77;15.07;;;;;;;;;;5004482;28;20036;-54
2023/11/05 08:26:58;;;;;;;4.75;4.40;;;;;;;;;;5055377;28;20404;-55
2023/11/05 08:29:24;;;;;;;13.40;11.90;;;29.00;81.00;;;;;;5036776;28;20041;-55
2023/11/05 08:31:50;;;;;;;4.28;3.85;;;;;;;;;;5035599;28;20397;-56
2023/11/05 08:34:17;;;;;;;17.15;15.45;;;;;;;;;;5035276;28;20080;-54
2023/11/05 08:36:43;;;;;;;4.55;3.58;;;;;;;;;;5035202;28;20026;-54
2023/11/05 08:39:09;;;;;;;9.77;9.07;;;;;;;;;;5000073;28;20481;-53
2023/11/05 08:41:34;;;;;;;5.07;4.68;;;31.80;99.90;;;;;;5035424;28;20663;-54
2023/11/05 08:44:00;;;;;;;11.45;9.73;;;31.30;90.90;;;;;;5035299;28;20104;-54
2023/11/05 08:46:26;;;;;;;14.18;11.07;;;;;;;;;;5035106;28;20048;-54
2023/11/05 08:48:52;;;;;;;23.67;14.77;;;29.70;96.20;;;;;;5034315;28;20041;-54
2023/11/05 08:51:33;;;;;;;5.68;5.38;;;29.10;80.60;;;;;;5035064;28;20055;-54
2023/11/05 08:54:00;;;;;;;4.07;3.75;;;;;;;;;;5034903;28;20117;-54
2023/11/05 08:56:26;;;;;;;5.63;5.32;;;;;;;;;;5034885;28;20037;-54
2023/11/05 08:58:52;;;;;;;4.45;4.07;;;;;;;;;;5035389;28;20028;-54
2023/11/05 09:01:19;;;;;;;5.50;4.50;;;;;;;;;;4999964;28;20037;-54
2023/11/05 09:03:45;;;;;;;5.25;4.07;;;;;;;;;;5034751;28;20034;-55
2023/11/05 09:06:12;;;;;;;3.63;3.33;;;31.10;86.00;;;;;;5034563;28;20080;-55
2023/11/05 09:08:39;;;;;;;6.47;5.88;;;30.70;79.30;;;;;;5034678;28;20041;-56
2023/11/05 09:11:05;;;;;;;5.60;4.40;;;;;;;;;;5035070;28;20079;-55
2023/11/05 09:13:32;;;;;;;2.80;2.60;;;;;;;;;;5034622;28;20071;-55
2023/11/05 09:15:58;;;;;;;4.28;3.97;;;;;;;;;;5034226;28;20026;-54
2023/11/05 09:18:25;;;;;;;2.88;2.53;;;;;;;;;;4999754;28;20040;-55
2023/11/05 09:20:52;;;;;;;4.15;3.38;;;29.70;80.40;;;;;;5034329;28;20041;-55
2023/11/05 09:23:18;;;;;;;3.47;3.08;;;;;;;;;;5034495;28;20038;-55
2023/11/05 09:25:44;;;;;;;4.68;3.13;;;;;;;;;;5034466;28;20228;-55
2023/11/05 09:28:10;;;;;;;2.85;2.40;;;;;;;;;;4999406;28;20108;-55
2023/11/05 09:30:36;;;;;;;4.18;3.78;;;;;;;;;;5034163;28;20029;-55
2023/11/05 09:33:03;;;;;;;3.72;2.95;;;;;;;;;;5034652;28;20119;-55
2023/11/05 09:35:29;;;;;;;3.28;2.78;;;;;;;;;;5034458;28;20116;-54
2023/11/05 09:37:56;;;;;;;2.95;2.72;;;;;;;;;;4999326;28;20488;-55
2023/11/05 09:40:22;;;;;;;2.70;2.60;;;;;;;;;;5033978;28;20423;-55
2023/11/05 09:43:00;;;;;;;3.45;3.25;;;;;;;;;;5034180;28;20025;-55
2023/11/05 09:45:31;;;;;;;1.23;0.77;;;;;;;;;;5034007;28;20476;-55
2023/11/05 09:47:58;;;;;;;4.82;4.63;;;32.00;93.60;;;;;;5033929;28;20102;-55
2023/11/05 09:50:24;;;;;;;3.17;2.15;;;;;;;;;;5033721;28;20042;-55
2023/11/05 09:52:51;;;;;;;3.58;1.55;;;;;;;;;;5033808;28;20029;-55
2023/11/05 09:55:17;;;;;;;1.70;1.30;;;;;;;;;;5033968;28;20449;-55
2023/11/05 09:57:43;;;;;;;1.92;1.50;;;30.50;78.00;;;;;;5033817;28;20021;-55
2023/11/05 10:00:09;;;;;;;0.45;0.35;;;;;;;;;;4998830;28;20037;-55
2023/11/05 10:02:55;;;;;;;0.30;0.20;;;;;;;;;;4998915;28;20044;-55
2023/11/05 10:05:22;;;;;;;1.40;1.40;;;;;;;;;;5033713;28;20053;-55
2023/11/05 10:07:48;;;;;;;1.40;1.17;;;29.10;80.10;;;;;;5033824;28;20468;-55
2023/11/05 10:10:15;;;;;;;2.67;0.30;;;28.50;80.20;;;;;;5033391;28;20092;-55
2023/11/05 10:12:41;;;;;;;1.60;0.52;;;;;;;;;;5033369;28;20496;-55
2023/11/05 10:15:08;;;;;;;1.67;0.50;;;;;;;;;;5033317;28;20032;-56
2023/11/05 10:17:34;;;;;;;1.17;0.50;;;;;;;;;;4982490;28;20037;-55
2023/11/05 10:20:00;;;;;;;0.47;0.30;;;27.90;81.70;;;;;;5033636;28;20025;-55
2023/11/05 10:22:25;;;;;;;0.20;0.20;;;26.80;82.40;;;;;;5033168;28;20507;-55
2023/11/05 10:24:52;;;;;;;1.45;0.70;;;;;;;;;;5033198;28;20056;-55
2023/11/05 10:27:35;;;;;;;1.08;0.57;;;26.10;82.60;;;;;;5032713;28;20025;-55
2023/11/05 10:30:04;;;;;;;2.22;1.60;;;;;;;;;;5033182;28;20056;-55
2023/11/05 10:32:32;;;;;;;2.08;0.93;;;;;;;;;;5032920;28;20112;-55
2023/11/05 10:34:58;;;;;;;2.10;1.48;;;;;;;;;;5032926;28;20036;-55
2023/11/05 10:37:24;;;;;;;1.88;1.63;;;27.70;99.90;;;;;;5033382;28;20045;-55
2023/11/05 10:39:50;;;;;;;14.52;10.27;;;28.10;84.00;;;;;;4952474;29;20046;-55
2023/11/05 10:42:17;;;;;;;1.25;0.90;;;28.60;85.80;;;;;;4952352;29;20074;-55
2023/11/05 10:44:46;;;;;;;61.72;33.90;;;28.50;82.10;;;;;;4952335;29;20042;-54
2023/11/05 10:47:12;;;;;;;22.75;12.52;;;;;;;;;;4952326;29;20035;-55
2023/11/05 10:49:39;;;;;;;59.63;34.80;;;29.50;99.90;;;;;;4952299;29;20478;-55
2023/11/05 10:52:09;;;;;;;42.72;20.13;;;;;;;;;;4952283;29;20039;-55
2023/11/05 10:54:37;;;;;;;13.00;7.35;;;;;;;;;;4920126;29;20039;-55
2023/11/05 10:57:23;;;;;;;1.90;1.80;;;;;;;;;;4952149;28;20519;-55
2023/11/05 10:59:49;;;;;;;3.60;2.70;;;;;;;;;;4952204;29;20487;-55
2023/11/05 11:02:15;;;;;;;27.52;13.98;;;;;;;;;;4952098;29;20035;-55
2023/11/05 11:04:41;;;;;;;15.93;9.05;;;;;;;;;;4951822;29;20050;-55
2023/11/05 11:07:07;;;;;;;25.52;14.38;;;30.40;91.20;;;;;;4920105;29;20043;-55
2023/11/05 11:09:33;;;;;;;5.85;3.55;;;30.40;84.10;;;;;;4951892;29;20407;-55
2023/11/05 11:12:19;;;;;;;30.23;13.52;;;;;;;;;;4920272;29;20035;-55
2023/11/05 11:14:45;;;;;;;10.63;4.43;;;30.90;79.20;;;;;;4951918;29;20106;-55
2023/11/05 11:17:17;;;;;;;2.63;1.00;;;30.30;90.40;;;;;;4989539;28;20544;-56
2023/11/05 11:19:43;;;;;;;5.93;3.20;;;;;;;;;;5032400;28;20061;-55
2023/11/05 11:22:10;;;;;;;9.05;6.28;;;;;;;;;;5032319;28;20040;-55
2023/11/05 11:24:37;;;;;;;1.45;0.70;;;28.60;88.20;;;;;;5032130;28;20032;-55
2023/11/05 11:27:05;;;;;;;2.33;0.70;;;28.20;94.20;;;;;;5032484;28;20025;-55
2023/11/05 11:29:32;;;;;;;1.45;0.47;;;;;;;;;;4981351;28;20068;-55
2023/11/05 11:31:58;;;;;;;2.35;0.50;;;;;;;;;;5032296;28;20029;-55
2023/11/05 11:34:25;;;;;;;3.05;0.63;;;26.20;85.60;;;;;;5032169;28;20488;-55
2023/11/05 11:37:01;;;;;;;2.22;1.27;;;23.40;99.90;;;;;;5032189;28;20470;-54
2023/11/05 11:39:28;;;;;;;4.03;1.25;;;21.80;99.90;;;;;;5031184;28;20392;-55
2023/11/05 11:41:55;;;;;;;4.18;1.33;;;;;;;;;;5026133;28;20108;-55
2023/11/05 11:44:21;;;;;;;3.45;1.10;;;;;;;;;;5032032;28;20061;-55
2023/11/05 11:46:50;;;;;;;3.03;1.05;;;;;;;;;;5031839;28;20120;-55
2023/11/05 11:49:16;;;;;;;5.13;2.00;;;;;;;;;;5031603;28;20484;-55
2023/11/05 11:51:43;;;;;;;3.13;1.20;;;;;;;;;;5031839;28;20034;-55
2023/11/05 11:54:11;;;;;;;6.03;1.70;;;17.80;99.90;;;;;;5032315;28;20018;-53
2023/11/05 11:56:39;;;;;;;2.85;0.95;;;17.60;99.90;;;;;;4997623;28;20041;-54
2023/11/05 11:59:06;;;;;;;4.22;1.20;;;17.50;99.90;;;;;;5031776;28;20037;-53
2023/11/05 12:01:37;;;;;;;2.58;1.00;;;17.50;99.90;;;;;;5031718;28;20168;-56
2023/11/05 12:04:04;;;;;;;2.60;0.77;;;;;;;;;;5013671;28;20029;-54
2023/11/05 12:06:30;;;;;;;3.38;1.63;;;;;;;;;;5031309;28;20033;-54
2023/11/05 12:08:57;;;;;;;4.05;1.52;;;17.00;99.90;;;;;;5031484;28;20389;-54
2023/11/05 12:11:28;;;;;;;2.85;0.80;;;;;;;;;;5031673;28;20068;-54
2023/11/05 12:13:54;;;;;;;3.17;0.88;;;16.70;99.90;;;;;;5031450;28;20116;-55
2023/11/05 12:16:20;;;;;;;3.00;0.90;;;16.50;99.90;;;;;;5031650;28;20087;-55
2023/11/05 12:18:48;;;;;;;3.80;0.90;;;;;;;;;;5031708;28;20380;-55
2023/11/05 12:21:14;;;;;;;4.88;1.13;;;16.40;99.90;;;;;;5031785;28;20072;-55
2023/11/05 12:23:41;;;;;;;3.50;0.98;;;;;;;;;;5031579;28;20160;-55
2023/11/05 12:26:16;;;;;;;4.15;1.30;;;;;;;;;;5031550;28;20121;-55
2023/11/05 12:28:43;;;;;;;10.32;6.82;;;16.00;99.90;;;;;;5031277;28;20034;-55
2023/11/05 12:31:08;;;;;;;4.95;2.42;;;15.80;99.90;;;;;;5031714;28;20037;-53
2023/11/05 12:33:38;;;;;;;6.53;5.50;;;15.70;99.90;;;;;;5031288;28;20030;-56
2023/11/05 12:36:06;;;;;;;4.45;1.83;;;15.70;99.90;;;;;;5031428;28;20034;-54
2023/11/05 12:38:32;;;;;;;2.38;1.38;;;15.70;99.90;;;;;;4980917;28;20065;-54
2023/11/05 12:40:59;;;;;;;4.45;1.50;;;15.60;99.90;;;;;;5031228;28;20428;-54
2023/11/05 12:43:24;;;;;;;2.33;1.42;;;15.50;99.90;;;;;;5031311;28;20650;-54
2023/11/05 12:45:58;;;;;;;5.07;1.25;;;15.60;99.90;;;;;;4996274;28;20030;-54
2023/11/05 12:48:28;;;;;;;2.28;0.95;;;15.60;99.90;;;;;;5031751;28;20034;-54
2023/11/05 12:50:54;;;;;;;4.80;1.73;;;15.60;99.90;;;;;;5032792;28;20096;-54
2023/11/05 12:53:21;;;;;;;2.08;0.85;;;15.90;99.90;;;;;;5034948;28;20030;-54
2023/11/05 12:56:04;;;;;;;2.22;1.20;;;15.70;99.90;;;;;;5035382;28;20064;-54
2023/11/05 12:58:31;;;;;;;3.08;0.73;;;15.50;99.90;;;;;;5034820;28;20068;-54
2023/11/05 13:00:57;;;;;;;3.47;1.58;;;15.70;99.90;;;;;;5034937;28;20041;-54
2023/11/05 13:03:23;;;;;;;2.75;0.98;;;15.70;99.90;;;;;;5034741;28;20615;-54
2023/11/05 13:05:50;;;;;;;2.20;0.55;;;15.60;99.90;;;;;;5034688;28;20176;-55
2023/11/05 13:08:16;;;;;;;3.95;2.22;;;15.70;99.90;;;;;;5035017;28;20033;-54
2023/11/05 13:10:42;;;;;;;3.78;2.38;;;15.60;99.90;;;;;;5034429;28;20048;-54
2023/11/05 13:13:08;;;;;;;2.97;1.73;;;15.80;99.90;;;;;;4999629;28;20037;-54
2023/11/05 13:15:34;;;;;;;2.63;1.27;;;15.80;99.90;;;;;;5041648;28;20060;-55